Time;durP1;ratioP1;P1;durP2;ratioP2;P2;SDS_P1;SDS_P2;PMS_P1;PMS_P2;Temp;Humidity;BMP_temperature;BMP_pressure;BME280_temperature;BME280_humidity;BME280_pressure;Samples;Min_cycle;Max_cycle;Signal;HPM_P1;HPM_P2
2024/04/08 00:00:23;;;;;;;19.33;17.27;;;17.40;99.90;;;;;;6308704;22;20345;-68
2024/04/08 00:02:50;;;;;;;21.83;17.70;;;17.40;99.90;;;;;;6308810;22;20070;-68
2024/04/08 00:05:19;;;;;;;22.90;18.20;;;17.40;99.90;;;;;;6308334;22;20333;-70
2024/04/08 00:07:46;;;;;;;26.38;18.98;;;17.40;99.90;;;;;;6308575;22;20078;-69
2024/04/08 00:10:12;;;;;;;24.65;18.65;;;17.30;99.90;;;;;;6308706;22;20010;-68
2024/04/08 00:12:39;;;;;;;25.35;18.63;;;17.40;99.90;;;;;;6308515;22;19999;-69
2024/04/08 00:15:06;;;;;;;25.60;18.48;;;17.30;99.90;;;;;;6308603;22;20003;-69
2024/04/08 00:17:32;;;;;;;20.33;17.10;;;17.30;99.90;;;;;;6308635;22;20441;-68
2024/04/08 00:19:58;;;;;;;21.27;16.95;;;17.30;99.90;;;;;;6308525;22;20014;-69
2024/04/08 00:22:24;;;;;;;20.88;16.00;;;17.30;99.90;;;;;;6308540;22;20030;-69
2024/04/08 00:24:53;;;;;;;20.33;15.63;;;17.30;99.90;;;;;;6308703;22;20007;-68
2024/04/08 00:27:19;;;;;;;19.00;14.35;;;17.30;99.90;;;;;;6308573;22;20007;-69
2024/04/08 00:29:45;;;;;;;18.00;13.75;;;17.20;99.90;;;;;;6308795;22;20319;-69
2024/04/08 00:32:12;;;;;;;19.10;13.73;;;17.30;99.90;;;;;;6308788;22;20462;-69
2024/04/08 00:34:39;;;;;;;14.23;11.60;;;17.20;99.90;;;;;;6308474;22;20318;-69
2024/04/08 00:37:06;;;;;;;19.80;12.80;;;17.20;99.90;;;;;;6308498;22;20004;-68
2024/04/08 00:39:32;;;;;;;16.13;11.82;;;17.20;99.90;;;;;;6308259;22;20481;-69
2024/04/08 00:41:58;;;;;;;14.63;11.90;;;17.20;99.90;;;;;;6308315;22;20417;-69
2024/04/08 00:44:24;;;;;;;14.38;11.98;;;17.20;99.90;;;;;;6307939;22;20060;-68
2024/04/08 00:46:51;;;;;;;15.35;12.75;;;17.20;99.90;;;;;;6309562;22;20003;-68
2024/04/08 00:49:17;;;;;;;17.50;12.90;;;17.20;99.90;;;;;;6308954;22;19999;-69
2024/04/08 00:51:44;;;;;;;15.93;12.80;;;17.20;99.90;;;;;;6308989;22;19999;-69
2024/04/08 00:54:11;;;;;;;14.48;12.77;;;17.10;99.90;;;;;;6308821;22;20015;-69
2024/04/08 00:56:42;;;;;;;16.67;12.57;;;17.10;99.90;;;;;;6281661;22;20006;-68
2024/04/08 01:23:19;;;;;;;27.25;13.18;;;16.80;99.90;;;;;;6066139;23;20017;-70
2024/04/08 01:25:45;;;;;;;17.38;12.70;;;16.80;99.90;;;;;;6070999;23;20386;-69
2024/04/08 01:28:11;;;;;;;18.63;12.27;;;16.70;99.90;;;;;;6293942;22;20358;-69
2024/04/08 01:30:37;;;;;;;19.75;12.48;;;16.70;99.90;;;;;;6307761;22;20376;-69
2024/04/08 01:33:03;;;;;;;17.00;12.80;;;16.70;99.90;;;;;;6307664;22;19996;-69
2024/04/08 01:35:28;;;;;;;15.25;12.05;;;16.70;99.90;;;;;;6307521;22;20007;-69
2024/04/08 01:37:54;;;;;;;15.85;11.35;;;16.70;99.90;;;;;;6307687;22;20074;-69
2024/04/08 01:40:20;;;;;;;17.20;11.73;;;16.70;99.90;;;;;;6307579;22;20088;-69
2024/04/08 01:42:46;;;;;;;16.10;11.27;;;16.70;99.90;;;;;;6307831;22;20004;-69
2024/04/08 01:45:12;;;;;;;14.02;11.20;;;16.60;99.90;;;;;;6308051;22;20007;-69
2024/04/08 01:47:37;;;;;;;14.55;11.30;;;16.60;99.90;;;;;;6307627;22;20023;-70
2024/04/08 01:50:05;;;;;;;13.68;11.15;;;16.60;99.90;;;;;;6307477;22;20003;-69
2024/04/08 01:52:30;;;;;;;17.58;11.27;;;16.60;99.90;;;;;;6307714;22;20487;-69
2024/04/08 01:54:56;;;;;;;22.42;11.02;;;16.60;99.90;;;;;;6307503;22;20023;-69
2024/04/08 01:57:22;;;;;;;17.92;11.85;;;16.60;99.90;;;;;;6307731;22;20011;-69
2024/04/08 01:59:48;;;;;;;22.67;10.93;;;16.50;99.90;;;;;;6307517;22;20022;-69
2024/04/08 02:02:14;;;;;;;25.48;12.38;;;16.50;99.90;;;;;;6307454;22;20066;-70
2024/04/08 02:04:39;;;;;;;18.73;11.32;;;16.50;99.90;;;;;;6307752;22;20010;-69
2024/04/08 02:07:05;;;;;;;24.40;11.60;;;16.50;99.90;;;;;;6307763;22;20053;-70
2024/04/08 02:09:31;;;;;;;13.18;11.30;;;16.50;99.90;;;;;;6307365;22;20023;-69
2024/04/08 02:11:57;;;;;;;19.30;11.02;;;16.50;99.90;;;;;;6307521;22;19999;-69
2024/04/08 02:14:22;;;;;;;16.08;11.80;;;16.40;99.90;;;;;;6307739;22;20011;-69
2024/04/08 02:16:49;;;;;;;18.35;12.57;;;16.40;99.90;;;;;;6307553;22;20003;-70
2024/04/08 02:19:14;;;;;;;16.25;11.85;;;16.40;99.90;;;;;;6307218;22;20007;-69
2024/04/08 02:21:40;;;;;;;16.17;13.35;;;16.40;99.90;;;;;;6307214;22;20056;-69
2024/04/08 02:24:07;;;;;;;16.27;11.75;;;16.30;99.90;;;;;;6307089;22;19995;-69
2024/04/08 02:26:33;;;;;;;17.48;12.82;;;16.30;99.90;;;;;;6307645;22;20038;-69
2024/04/08 02:28:59;;;;;;;16.98;13.00;;;16.30;99.90;;;;;;6307612;22;20049;-69
2024/04/08 02:31:25;;;;;;;17.55;12.43;;;16.30;99.90;;;;;;6307750;22;20445;-69
2024/04/08 02:33:52;;;;;;;18.65;13.20;;;16.30;99.90;;;;;;6307514;22;20033;-69
2024/04/08 02:44:05;;;;;;;20.65;12.13;;;16.20;99.90;;;;;;6308144;22;20014;-69
2024/04/08 02:56:57;;;;;;;19.38;12.13;;;16.10;99.90;;;;;;6044583;23;20029;-69
2024/04/08 03:02:19;;;;;;;22.75;10.98;;;16.00;99.90;;;;;;6094122;23;20357;-69
2024/04/08 03:04:45;;;;;;;15.00;11.32;;;15.90;99.90;;;;;;6094680;23;20496;-69
2024/04/08 03:07:11;;;;;;;15.93;11.38;;;15.90;99.90;;;;;;6155881;22;20007;-69
2024/04/08 03:09:37;;;;;;;17.33;10.60;;;15.90;99.90;;;;;;6306686;22;20330;-69
2024/04/08 03:12:03;;;;;;;13.02;10.60;;;15.80;99.90;;;;;;6307214;22;20086;-69
2024/04/08 03:14:29;;;;;;;17.40;11.68;;;15.70;99.90;;;;;;6279709;22;20376;-69
2024/04/08 03:16:55;;;;;;;15.95;11.90;;;15.60;99.90;;;;;;6307042;22;19996;-69
2024/04/08 03:19:20;;;;;;;13.38;11.68;;;15.60;99.90;;;;;;6306827;22;20011;-69
2024/04/08 03:21:46;;;;;;;15.57;11.23;;;15.60;99.90;;;;;;6306987;22;19999;-69
2024/04/08 03:24:12;;;;;;;17.75;12.25;;;15.50;99.90;;;;;;6306740;22;20018;-70
2024/04/08 03:26:38;;;;;;;19.95;11.25;;;15.50;99.90;;;;;;6280062;22;20017;-68
2024/04/08 03:29:04;;;;;;;14.10;11.85;;;15.50;99.90;;;;;;6306835;22;20006;-69
2024/04/08 03:31:29;;;;;;;15.90;12.00;;;15.50;99.90;;;;;;6280006;22;20439;-69
2024/04/08 03:33:56;;;;;;;17.50;12.32;;;15.50;99.90;;;;;;6309147;22;19999;-69
2024/04/08 03:36:21;;;;;;;15.20;11.38;;;15.60;99.90;;;;;;6309223;22;20472;-69
2024/04/08 03:38:47;;;;;;;16.27;11.63;;;15.60;99.90;;;;;;6308852;22;20005;-68
2024/04/08 03:41:13;;;;;;;16.00;11.48;;;15.50;99.90;;;;;;6281884;22;20003;-68
2024/04/08 03:43:39;;;;;;;15.45;10.98;;;15.50;99.90;;;;;;6309009;22;20006;-69
2024/04/08 03:46:04;;;;;;;14.70;11.02;;;15.50;99.90;;;;;;6308726;22;20003;-69
2024/04/08 03:48:31;;;;;;;20.30;11.50;;;15.50;99.90;;;;;;6308860;22;20023;-68
2024/04/08 03:50:56;;;;;;;16.42;11.48;;;15.50;99.90;;;;;;6309044;22;20002;-69
2024/04/08 03:53:22;;;;;;;14.70;11.32;;;15.50;99.90;;;;;;6308959;22;20003;-69
2024/04/08 03:55:48;;;;;;;16.00;11.18;;;15.50;99.90;;;;;;6308831;22;19999;-69
2024/04/08 03:58:14;;;;;;;19.98;11.05;;;15.40;99.90;;;;;;6308035;22;20440;-69
2024/04/08 04:00:40;;;;;;;16.67;12.25;;;15.40;99.90;;;;;;6308616;22;20325;-69
2024/04/08 04:03:06;;;;;;;23.80;11.43;;;15.50;99.90;;;;;;6309820;22;19999;-69
2024/04/08 04:05:31;;;;;;;16.92;11.88;;;15.50;99.90;;;;;;6310095;22;20061;-68
2024/04/08 04:07:57;;;;;;;18.27;11.25;;;15.50;99.90;;;;;;6309849;22;20010;-69
2024/04/08 04:10:23;;;;;;;16.58;13.20;;;15.50;99.90;;;;;;6309198;22;20007;-69
2024/04/08 04:12:49;;;;;;;16.15;12.35;;;15.40;99.90;;;;;;6309081;22;19999;-69
2024/04/08 04:26:32;;;;;;;16.70;12.05;;;15.40;99.90;;;;;;6095493;23;20429;-69
2024/04/08 04:29:06;;;;;;;18.63;12.70;;;15.30;99.90;;;;;;6095169;23;20054;-69
2024/04/08 04:35:05;;;;;;;17.10;14.07;;;15.20;99.90;;;;;;6095657;23;20032;-69
2024/04/08 04:41:09;;;;;;;15.45;12.95;;;15.10;99.90;;;;;;5994897;23;20024;-69
2024/04/08 04:43:36;;;;;;;16.98;13.75;;;15.10;99.90;;;;;;6094806;23;20311;-69
2024/04/08 04:46:03;;;;;;;20.48;14.23;;;15.10;99.90;;;;;;6109931;23;20359;-68
2024/04/08 04:48:29;;;;;;;19.00;14.05;;;15.10;99.90;;;;;;6218732;22;20094;-69
2024/04/08 04:50:55;;;;;;;17.25;13.75;;;15.10;99.90;;;;;;6308155;22;20028;-69
2024/04/08 04:53:20;;;;;;;16.92;13.75;;;15.10;99.90;;;;;;6280226;22;20004;-69
2024/04/08 04:55:55;;;;;;;22.90;12.80;;;15.20;99.90;;;;;;6308146;22;20035;-68
2024/04/08 04:58:21;;;;;;;29.52;13.13;;;15.10;99.90;;;;;;6307890;22;20381;-69
2024/04/08 05:00:50;;;;;;;16.90;12.20;;;15.10;99.90;;;;;;6307751;22;20011;-69
2024/04/08 05:03:18;;;;;;;20.25;12.20;;;15.10;99.90;;;;;;6307923;22;20430;-69
2024/04/08 05:05:52;;;;;;;22.42;12.73;;;15.10;99.90;;;;;;6307942;22;20088;-69
2024/04/08 05:08:17;;;;;;;15.38;13.15;;;15.10;99.90;;;;;;6307734;22;20015;-68
2024/04/08 05:10:43;;;;;;;16.60;13.55;;;15.10;99.90;;;;;;6307766;22;19991;-69
2024/04/08 05:13:09;;;;;;;20.45;13.57;;;15.20;99.90;;;;;;6307709;22;20004;-69
2024/04/08 05:15:35;;;;;;;19.02;13.32;;;15.10;99.90;;;;;;6307598;22;20000;-69
2024/04/08 05:18:01;;;;;;;19.13;12.95;;;15.20;99.90;;;;;;6307843;22;20003;-69
2024/04/08 05:20:29;;;;;;;16.70;13.57;;;15.20;99.90;;;;;;6307528;22;20503;-69
2024/04/08 05:22:55;;;;;;;19.13;13.05;;;15.20;99.90;;;;;;6307814;22;19995;-69
2024/04/08 05:25:21;;;;;;;31.45;13.02;;;15.20;99.90;;;;;;6307726;22;19999;-69
2024/04/08 05:27:47;;;;;;;30.63;12.75;;;15.20;99.90;;;;;;6307902;22;20010;-69
2024/04/08 05:30:12;;;;;;;37.92;12.23;;;15.30;99.90;;;;;;6307158;22;20186;-69
2024/04/08 05:32:38;;;;;;;41.63;14.15;;;15.30;99.90;;;;;;6307502;22;20005;-69
2024/04/08 05:35:05;;;;;;;29.90;13.20;;;15.40;99.90;;;;;;6306801;22;19999;-68
2024/04/08 05:37:30;;;;;;;40.97;13.02;;;15.40;99.90;;;;;;6307418;22;20007;-69
2024/04/08 05:39:56;;;;;;;23.13;13.35;;;15.30;99.90;;;;;;6308199;22;20011;-69
2024/04/08 05:42:22;;;;;;;27.58;14.35;;;15.30;99.90;;;;;;6307835;22;20026;-69
2024/04/08 05:44:48;;;;;;;33.13;14.73;;;15.30;99.90;;;;;;6308235;22;20074;-69
2024/04/08 05:47:14;;;;;;;40.80;16.95;;;15.30;99.90;;;;;;6308302;22;20525;-69
2024/04/08 05:49:45;;;;;;;44.42;17.48;;;15.30;99.90;;;;;;6281097;22;20491;-68
2024/04/08 05:52:11;;;;;;;42.97;17.83;;;15.30;99.90;;;;;;6308265;22;20083;-69
2024/04/08 06:12:37;;;;;;;31.65;17.38;;;15.50;99.90;;;;;;5919987;24;20021;-66
2024/04/08 06:18:39;;;;;;;29.15;17.77;;;15.50;99.90;;;;;;5996663;23;20014;-66
2024/04/08 06:21:05;;;;;;;31.02;16.20;;;15.50;99.90;;;;;;6180617;23;20490;-69
2024/04/08 06:23:32;;;;;;;23.55;16.90;;;15.60;99.90;;;;;;6182114;23;20324;-66
2024/04/08 07:51:48;;;;;;;23.73;17.50;;;16.90;99.90;;;;;;4908388;22;30369934;-68
2024/04/08 07:57:41;;;;;;;22.55;17.10;;;17.10;99.90;;;;;;6123913;23;20017;-68
2024/04/08 08:00:07;;;;;;;23.23;17.58;;;17.20;99.90;;;;;;6186299;23;20075;-68
2024/04/08 08:02:34;;;;;;;24.05;19.20;;;17.20;99.90;;;;;;6184638;23;20103;-67
2024/04/08 08:05:00;;;;;;;33.58;19.17;;;17.30;99.90;;;;;;6185582;23;20344;-67
2024/04/08 08:07:26;;;;;;;30.58;20.15;;;17.30;99.90;;;;;;6185992;23;20003;-67
2024/04/08 08:09:52;;;;;;;35.88;23.88;;;17.30;99.90;;;;;;6185489;23;20086;-67
2024/04/08 08:12:18;;;;;;;33.63;25.30;;;17.40;99.90;;;;;;6183963;23;20280;-66
2024/04/08 08:14:46;;;;;;;30.73;25.30;;;17.50;99.90;;;;;;6185755;23;20001;-67
2024/04/08 08:17:12;;;;;;;38.97;30.00;;;17.50;99.90;;;;;;6185472;23;20038;-67
2024/04/08 08:19:37;;;;;;;37.05;27.05;;;17.60;99.90;;;;;;6184716;23;20005;-69
2024/04/08 08:22:04;;;;;;;33.70;26.05;;;17.60;99.90;;;;;;6183408;23;20001;-68
2024/04/08 08:24:29;;;;;;;36.67;25.67;;;17.60;99.90;;;;;;6185037;23;20096;-68
2024/04/08 08:26:56;;;;;;;36.28;24.08;;;17.70;99.90;;;;;;6185918;23;20506;-68
2024/04/08 08:29:22;;;;;;;32.78;25.77;;;17.80;99.90;;;;;;6185932;23;20005;-68
2024/04/08 08:31:47;;;;;;;35.08;26.02;;;17.90;99.90;;;;;;6186257;23;20002;-68
2024/04/08 08:34:13;;;;;;;63.92;27.00;;;18.00;99.90;;;;;;6184254;23;20009;-67
2024/04/08 08:36:39;;;;;;;36.92;25.92;;;18.00;99.90;;;;;;6186110;23;20031;-68
2024/04/08 08:39:05;;;;;;;32.88;24.85;;;18.10;99.90;;;;;;6185848;23;20005;-68
2024/04/08 08:41:32;;;;;;;27.20;21.85;;;18.20;99.90;;;;;;6183602;23;20031;-68
2024/04/08 08:44:01;;;;;;;26.17;22.33;;;18.30;99.90;;;;;;6183342;23;20001;-68
2024/04/08 08:46:28;;;;;;;24.10;20.90;;;18.40;99.90;;;;;;6183047;23;20001;-68
2024/04/08 08:48:59;;;;;;;27.92;19.05;;;18.40;99.90;;;;;;6182754;23;20001;-68
2024/04/08 08:51:26;;;;;;;21.70;18.45;;;18.50;99.90;;;;;;6183027;23;20013;-68
2024/04/08 08:53:53;;;;;;;25.08;17.27;;;18.50;99.90;;;;;;6183496;23;19997;-68
2024/04/08 08:56:19;;;;;;;21.30;14.10;;;18.60;99.90;;;;;;6183242;23;20005;-69
2024/04/08 08:58:52;;;;;;;22.60;13.85;;;18.70;99.90;;;;;;6183591;23;20076;-68
2024/04/08 09:01:19;;;;;;;15.82;13.07;;;18.70;99.90;;;;;;6183966;23;20004;-68
2024/04/08 09:03:45;;;;;;;15.25;12.27;;;18.80;99.90;;;;;;6184273;23;20047;-69
2024/04/08 09:06:11;;;;;;;21.35;14.55;;;18.80;99.90;;;;;;6184066;23;20005;-68
2024/04/08 09:08:38;;;;;;;23.60;13.43;;;18.90;99.90;;;;;;6183975;23;20424;-68
2024/04/08 09:15:14;;;;;;;21.77;13.38;;;19.10;99.90;;;;;;5899863;24;20013;-68
2024/04/08 09:21:19;;;;;;;19.15;12.63;;;19.20;99.90;;;;;;5782228;24;20059;-68
2024/04/08 09:24:09;;;;;;;17.98;13.25;;;19.30;99.90;;;;;;5868753;23;20012;-68
2024/04/08 09:26:39;;;;;;;21.88;13.02;;;19.40;99.90;;;;;;6090947;23;20017;-67
2024/04/08 09:29:05;;;;;;;21.95;12.65;;;19.40;99.90;;;;;;6123721;23;20006;-68
2024/04/08 09:31:33;;;;;;;22.48;15.52;;;19.50;99.90;;;;;;6158175;23;20004;-68
2024/04/08 09:34:02;;;;;;;20.20;13.85;;;19.50;99.90;;;;;;6182392;23;20009;-69
2024/04/08 09:36:29;;;;;;;21.20;14.15;;;19.60;99.90;;;;;;6185101;23;20008;-68
2024/04/08 09:38:59;;;;;;;21.35;12.63;;;19.60;99.90;;;;;;6184943;23;20005;-68
2024/04/08 09:41:27;;;;;;;17.10;13.52;;;19.70;99.90;;;;;;6185203;23;20028;-68
2024/04/08 09:43:55;;;;;;;22.13;14.30;;;19.80;99.90;;;;;;6185088;23;20328;-68
2024/04/08 09:46:22;;;;;;;19.55;14.88;;;19.80;99.90;;;;;;6185080;23;20005;-68
2024/04/08 09:48:52;;;;;;;22.48;14.10;;;19.90;99.90;;;;;;6185184;23;20005;-68
2024/04/08 09:51:19;;;;;;;21.08;15.32;;;20.00;99.90;;;;;;6185002;23;20017;-68
2024/04/08 09:53:46;;;;;;;18.20;13.65;;;20.10;99.90;;;;;;6184958;23;20420;-68
2024/04/08 09:56:16;;;;;;;19.60;13.13;;;20.10;99.90;;;;;;6183064;23;20013;-68
2024/04/08 09:59:10;;;;;;;20.98;14.70;;;20.20;99.90;;;;;;6184766;23;20004;-68
2024/04/08 10:01:40;;;;;;;20.55;14.55;;;20.30;99.90;;;;;;6185204;23;20459;-68
2024/04/08 10:04:25;;;;;;;22.38;16.13;;;20.30;99.90;;;;;;6185139;23;20440;-68
2024/04/08 10:06:52;;;;;;;23.85;14.88;;;20.40;99.90;;;;;;6184653;23;20066;-68
2024/04/08 10:09:20;;;;;;;19.92;12.98;;;20.50;99.90;;;;;;6185051;23;20420;-69
2024/04/08 10:11:50;;;;;;;19.08;14.02;;;20.50;99.90;;;;;;6184824;23;20511;-68
2024/04/08 10:14:17;;;;;;;17.48;11.90;;;20.50;99.90;;;;;;6184691;23;20055;-70
2024/04/08 10:16:43;;;;;;;24.10;14.88;;;20.60;99.90;;;;;;6185094;23;20005;-71
2024/04/08 10:19:11;;;;;;;24.77;15.65;;;20.60;99.90;;;;;;6185341;23;20013;-77
2024/04/08 10:21:38;;;;;;;19.23;12.88;;;20.70;99.90;;;;;;6184961;23;20063;-77
2024/04/08 10:24:04;;;;;;;20.70;12.20;;;20.80;99.90;;;;;;6184739;23;20008;-77
2024/04/08 10:26:36;;;;;;;18.13;8.85;;;20.80;99.90;;;;;;6185011;23;20009;-77
2024/04/08 10:29:01;;;;;;;;;;;20.90;99.90;;;;;;6185352;23;20004;-77
2024/04/08 10:31:28;;;;;;;16.77;7.30;;;21.00;99.90;;;;;;6185089;23;19983;-76
2024/04/08 10:33:54;;;;;;;15.63;9.00;;;21.00;99.90;;;;;;6184806;23;20020;-67
2024/04/08 10:36:20;;;;;;;14.75;8.55;;;21.00;99.90;;;;;;6185404;23;20032;-68
2024/04/08 10:38:46;;;;;;;15.20;8.35;;;21.10;99.90;;;;;;6185924;23;20036;-68
2024/04/08 10:41:13;;;;;;;16.15;9.70;;;21.10;99.90;;;;;;6185961;23;20001;-68
2024/04/08 10:43:39;;;;;;;16.73;8.20;;;21.20;99.90;;;;;;6185887;23;20313;-68
2024/04/08 10:46:22;;;;;;;13.95;8.27;;;21.30;99.90;;;;;;6185335;23;20017;-68
2024/04/08 11:06:14;;;;;;;11.43;7.72;;;21.60;99.40;;;;;;6064449;23;20063;-67
2024/04/08 11:09:08;;;;;;;17.15;10.18;;;21.60;99.30;;;;;;6064164;23;20018;-68
2024/04/08 11:11:45;;;;;;;19.23;8.43;;;21.70;99.70;;;;;;6065081;23;20010;-72
2024/04/08 11:14:11;;;;;;;16.80;8.65;;;21.70;99.70;;;;;;6066526;23;20452;-68
2024/04/08 11:16:37;;;;;;;21.55;8.70;;;21.70;99.90;;;;;;6105487;23;20363;-67
2024/04/08 11:19:03;;;;;;;13.48;6.97;;;21.80;99.90;;;;;;6181038;23;20360;-67
2024/04/08 11:21:28;;;;;;;13.05;6.95;;;21.90;99.80;;;;;;6186285;23;20059;-68
2024/04/08 11:23:54;;;;;;;9.27;6.45;;;21.90;99.60;;;;;;6183357;23;20332;-69
2024/04/08 11:26:22;;;;;;;11.65;6.55;;;22.00;98.80;;;;;;6185223;23;20009;-67
2024/04/08 11:28:48;;;;;;;18.55;10.88;;;22.00;98.40;;;;;;6183265;23;20370;-68
2024/04/08 11:31:14;;;;;;;18.00;10.70;;;22.00;99.90;;;;;;6184873;23;20063;-68
2024/04/08 11:33:39;;;;;;;17.38;9.10;;;22.10;99.90;;;;;;6183471;23;20005;-68
2024/04/08 11:36:08;;;;;;;15.15;7.43;;;22.10;99.20;;;;;;6184025;23;20004;-68
2024/04/08 11:38:34;;;;;;;13.32;6.47;;;22.10;99.30;;;;;;6184484;23;20446;-67
2024/04/08 11:40:59;;;;;;;17.40;9.50;;;22.20;98.20;;;;;;6184791;23;20084;-67
2024/04/08 11:43:25;;;;;;;18.35;10.55;;;22.20;98.40;;;;;;6183536;23;20001;-68
2024/04/08 11:45:51;;;;;;;16.98;8.88;;;22.30;99.20;;;;;;6182741;23;20044;-67
2024/04/08 11:48:18;;;;;;;17.05;10.70;;;22.30;99.50;;;;;;6183576;23;20009;-67
2024/04/08 11:50:44;;;;;;;22.08;8.40;;;22.30;99.60;;;;;;6183906;23;20012;-68
2024/04/08 11:53:10;;;;;;;13.77;8.35;;;22.30;99.90;;;;;;6185815;23;20001;-68
2024/04/08 11:55:37;;;;;;;16.70;11.10;;;22.40;99.90;;;;;;6186291;23;20005;-68
2024/04/08 11:58:04;;;;;;;20.13;10.93;;;22.50;99.90;;;;;;6186466;23;20012;-67
2024/04/08 12:00:29;;;;;;;17.85;10.57;;;22.60;99.90;;;;;;6184107;23;20012;-67
2024/04/08 12:02:55;;;;;;;16.73;10.07;;;22.60;99.90;;;;;;6182806;23;20005;-67
2024/04/08 12:05:21;;;;;;;36.20;12.02;;;22.60;99.90;;;;;;6185093;23;20020;-67
2024/04/08 12:07:47;;;;;;;28.35;10.43;;;22.60;99.90;;;;;;6185666;23;20075;-68
2024/04/08 12:10:13;;;;;;;28.55;13.25;;;22.70;99.90;;;;;;6184069;23;20040;-67
2024/04/08 12:12:40;;;;;;;15.65;9.52;;;22.70;99.90;;;;;;6185198;23;20012;-68
2024/04/08 12:15:06;;;;;;;15.27;8.77;;;22.70;99.10;;;;;;6185971;23;20009;-67
2024/04/08 12:17:33;;;;;;;18.10;8.70;;;22.80;98.60;;;;;;6186664;23;19997;-67
2024/04/08 12:19:58;;;;;;;14.88;7.97;;;22.80;98.70;;;;;;6186581;23;20011;-67
2024/04/08 12:22:28;;;;;;;16.42;7.90;;;22.80;98.40;;;;;;6186417;23;20076;-67
2024/04/08 12:28:48;;;;;;;12.82;6.28;;;22.80;99.20;;;;;;6121310;23;20019;-67
2024/04/08 12:35:26;;;;;;;14.65;6.25;;;22.90;96.90;;;;;;6186530;23;20016;-68
2024/04/08 12:41:59;;;;;;;11.50;6.38;;;23.00;96.80;;;;;;6122281;23;20038;-67
2024/04/08 12:51:08;;;;;;;15.20;5.07;;;23.10;96.30;;;;;;6130225;23;20521;-68
2024/04/08 12:53:34;;;;;;;11.55;4.40;;;23.20;96.30;;;;;;6189886;23;20306;-78
2024/04/08 12:56:01;;;;;;;10.82;5.15;;;23.10;94.00;;;;;;6216150;23;20013;-79
2024/04/08 12:58:27;;;;;;;27.02;5.97;;;23.10;93.10;;;;;;6215352;23;20004;-79
2024/04/08 13:00:53;;;;;;;23.92;6.03;;;23.10;94.30;;;;;;6215599;23;20008;-77
2024/04/08 13:03:18;;;;;;;10.27;5.63;;;23.10;95.00;;;;;;6216022;23;20308;-78
2024/04/08 13:05:48;;;;;;;15.18;6.03;;;23.10;94.40;;;;;;6215558;23;20015;-76
2024/04/08 13:08:14;;;;;;;9.52;4.63;;;23.10;94.50;;;;;;6216099;23;20427;-77
2024/04/08 13:10:40;;;;;;;9.48;4.57;;;23.10;94.30;;;;;;6215854;23;20032;-77
2024/04/08 13:13:06;;;;;;;10.23;5.13;;;23.10;94.50;;;;;;6215089;23;20009;-73
2024/04/08 13:15:32;;;;;;;11.65;5.05;;;23.10;93.60;;;;;;6215019;23;20004;-77
2024/04/08 13:17:57;;;;;;;12.32;4.95;;;23.00;93.40;;;;;;6215343;23;20031;-69
2024/04/08 13:20:23;;;;;;;13.07;4.88;;;23.00;94.10;;;;;;6215175;23;20004;-77
2024/04/08 13:22:49;;;;;;;8.25;3.90;;;23.00;94.20;;;;;;6215270;23;20092;-79
2024/04/08 13:25:15;;;;;;;10.10;4.13;;;23.00;94.70;;;;;;6215516;23;20435;-78
2024/04/08 13:27:40;;;;;;;7.57;5.13;;;23.00;94.60;;;;;;6215793;23;20012;-77
2024/04/08 13:30:07;;;;;;;10.27;4.95;;;23.00;94.30;;;;;;6215820;23;20008;-79
2024/04/08 13:32:32;;;;;;;8.40;4.55;;;23.00;93.30;;;;;;6215644;23;20004;-81
2024/04/08 13:34:58;;;;;;;8.32;3.75;;;23.00;94.10;;;;;;6215235;23;20391;-77
2024/04/08 13:37:24;;;;;;;11.13;4.63;;;23.10;94.20;;;;;;6215531;23;20004;-78
2024/04/08 13:39:52;;;;;;;7.80;3.67;;;23.10;93.70;;;;;;6215082;23;20055;-77
2024/04/08 13:42:18;;;;;;;8.30;4.22;;;23.10;92.50;;;;;;6215239;23;20027;-78
2024/04/08 13:44:46;;;;;;;8.40;4.72;;;23.10;91.90;;;;;;6215609;23;20423;-77
2024/04/08 13:47:12;;;;;;;8.32;4.20;;;23.10;92.70;;;;;;6215023;23;20427;-77
2024/04/08 13:49:38;;;;;;;10.52;4.60;;;23.10;92.60;;;;;;6215560;23;20461;-77
2024/04/08 13:52:06;;;;;;;7.32;4.22;;;23.10;93.00;;;;;;6215172;23;19997;-76
2024/04/08 13:54:33;;;;;;;11.70;4.22;;;23.00;92.40;;;;;;6187465;23;20423;-77
2024/04/08 13:56:59;;;;;;;9.23;4.15;;;23.00;93.30;;;;;;6213606;23;20000;-77
2024/04/08 13:59:24;;;;;;;11.38;4.15;;;23.00;92.60;;;;;;6214110;23;20028;-77
2024/04/08 14:01:50;;;;;;;12.77;5.30;;;23.00;93.00;;;;;;6214205;23;20079;-76
2024/04/08 14:04:17;;;;;;;10.25;4.18;;;23.00;92.00;;;;;;6214045;23;20083;-77
2024/04/08 14:06:44;;;;;;;7.47;4.40;;;23.00;92.00;;;;;;6214701;23;20000;-76
2024/04/08 14:09:11;;;;;;;8.27;4.15;;;23.10;92.80;;;;;;6215247;23;20000;-77
2024/04/08 14:11:37;;;;;;;8.25;3.95;;;23.10;93.10;;;;;;6215491;23;20377;-77
2024/04/08 14:14:02;;;;;;;7.30;3.58;;;23.10;93.60;;;;;;6215354;23;20011;-77
2024/04/08 14:16:28;;;;;;;7.50;4.18;;;23.10;92.70;;;;;;6215342;23;20000;-77
2024/04/08 14:18:54;;;;;;;7.80;4.07;;;23.20;92.60;;;;;;6215737;23;20008;-77
2024/04/08 14:21:21;;;;;;;8.40;3.70;;;23.20;91.90;;;;;;6215143;23;20497;-77
2024/04/08 14:23:46;;;;;;;8.07;3.75;;;23.10;91.80;;;;;;6215111;23;20035;-76
2024/04/08 14:26:12;;;;;;;9.57;4.57;;;23.10;91.30;;;;;;6215337;23;20331;-77
2024/04/08 14:28:39;;;;;;;11.95;3.92;;;23.10;91.60;;;;;;6215422;23;20082;-78
2024/04/08 14:31:05;;;;;;;8.35;3.80;;;23.10;91.00;;;;;;6215377;23;20004;-78
2024/04/08 14:33:31;;;;;;;11.98;3.58;;;23.10;91.60;;;;;;6215394;23;20000;-77
2024/04/08 14:35:57;;;;;;;11.15;3.67;;;23.10;91.80;;;;;;6215292;23;20453;-78
2024/04/08 14:38:22;;;;;;;9.38;3.90;;;23.10;91.20;;;;;;6214974;23;20035;-77
2024/04/08 14:40:48;;;;;;;9.98;4.28;;;23.10;91.10;;;;;;6215523;23;20028;-76
2024/04/08 14:43:14;;;;;;;9.98;3.50;;;23.10;91.60;;;;;;6215217;23;19997;-77
2024/04/08 14:45:41;;;;;;;9.93;4.20;;;23.10;91.90;;;;;;6215373;23;20012;-76
2024/04/08 14:48:07;;;;;;;8.10;3.88;;;23.10;91.20;;;;;;6217030;23;20003;-77
2024/04/08 14:50:33;;;;;;;13.30;4.85;;;23.00;91.40;;;;;;6217213;23;20027;-76
2024/04/08 14:52:59;;;;;;;13.93;4.03;;;23.10;91.80;;;;;;6217601;23;20075;-76
2024/04/08 14:55:26;;;;;;;9.55;3.85;;;23.10;92.10;;;;;;6216805;23;20044;-76
2024/04/08 14:57:51;;;;;;;9.07;3.97;;;23.10;91.70;;;;;;6216379;23;20001;-77
2024/04/08 15:00:17;;;;;;;9.95;3.67;;;23.10;92.10;;;;;;6216435;23;20326;-77
2024/04/08 15:02:47;;;;;;;8.73;3.90;;;23.10;91.40;;;;;;6216315;23;20051;-74
2024/04/08 15:05:13;;;;;;;9.85;4.28;;;23.10;91.30;;;;;;6216767;23;20017;-77
2024/04/08 15:07:39;;;;;;;11.43;4.40;;;23.10;91.40;;;;;;6216726;23;20005;-77
2024/04/08 15:10:06;;;;;;;7.53;4.00;;;23.10;91.80;;;;;;6216818;23;20347;-78
2024/04/08 15:12:31;;;;;;;14.43;6.00;;;23.10;92.20;;;;;;6217026;23;20007;-79
2024/04/08 15:14:57;;;;;;;9.93;4.75;;;23.20;92.00;;;;;;6216386;23;20391;-78
2024/04/08 15:17:23;;;;;;;13.05;5.55;;;23.20;92.90;;;;;;6217092;23;20005;-78
2024/04/08 15:19:48;;;;;;;13.48;5.03;;;23.20;92.50;;;;;;6216837;23;20015;-73
2024/04/08 15:22:14;;;;;;;13.32;6.03;;;23.10;92.40;;;;;;6216264;23;20024;-77
2024/04/08 15:24:41;;;;;;;14.27;5.30;;;23.10;93.10;;;;;;6189838;23;20047;-78
2024/04/08 15:27:06;;;;;;;27.38;7.63;;;23.10;92.60;;;;;;6216618;23;20111;-79
2024/04/08 15:29:32;;;;;;;19.25;6.55;;;23.10;93.20;;;;;;6216553;23;20423;-78
2024/04/08 15:32:00;;;;;;;10.15;5.35;;;23.10;93.60;;;;;;6216843;23;19997;-78
2024/04/08 15:34:26;;;;;;;14.57;6.05;;;23.10;93.80;;;;;;6216746;23;20004;-76
2024/04/08 15:36:52;;;;;;;14.88;6.03;;;23.10;94.10;;;;;;6216737;23;20076;-77
2024/04/08 15:39:17;;;;;;;14.77;5.78;;;23.10;93.50;;;;;;6216646;23;20385;-77
2024/04/08 15:41:43;;;;;;;21.20;6.65;;;23.10;93.80;;;;;;6216517;23;20000;-79
2024/04/08 15:44:09;;;;;;;10.77;5.45;;;23.10;93.50;;;;;;6215855;23;20443;-76
2024/04/08 15:46:34;;;;;;;11.00;4.85;;;23.10;93.40;;;;;;6189734;23;20109;-76
2024/04/08 15:49:00;;;;;;;12.15;6.00;;;23.10;92.90;;;;;;6214762;23;20005;-78
2024/04/08 15:51:26;;;;;;;9.38;5.10;;;23.00;93.30;;;;;;6216803;23;20019;-77
2024/04/08 15:53:52;;;;;;;11.35;6.07;;;23.00;93.80;;;;;;6216559;23;20036;-77
2024/04/08 15:56:18;;;;;;;13.00;5.07;;;23.00;93.80;;;;;;6215440;23;20001;-77
2024/04/08 15:58:44;;;;;;;13.38;5.35;;;23.00;93.70;;;;;;6215683;23;20007;-78
2024/04/08 16:01:09;;;;;;;13.68;4.93;;;23.00;93.70;;;;;;6215345;23;20000;-77
2024/04/08 16:03:35;;;;;;;10.70;5.70;;;22.90;93.70;;;;;;6215478;23;20079;-77
2024/04/08 16:06:19;;;;;;;10.70;5.05;;;22.90;93.50;;;;;;6216164;23;20431;-77
2024/04/08 16:08:44;;;;;;;12.75;5.70;;;22.90;93.80;;;;;;6216346;23;19997;-77